Youkamaru — JD3772 — position and weather

sailwx.info

Track history (hours):
 
Tides and Currents Weather Stations Pressure Air Temp Water Temp Dewpoint Dewpoint Depression Visibility Wind Speed Wind Dir Waves Ship Positions

Youkamaru

Last reported at 2017-Dec-17 14:37 UTC. Time now 2017-Dec-17 17:24 UTC.
Position N 34°26' E 134°55'.

Length 72 m; draft 4.8 m.

Type: Cargo ship. MMSI: 431005921.

Date/timePositionNaut miles runAvg speedWind from/ knotsBaromVisibWave heightAir tempDewpointWater temp
2017-Dec-17 14:37N 34°26' E 134°55'0 0.0
2017-Dec-17 14:31N 34°26' E 134°55'2 4.6
2017-Dec-17 14:01N 34°27' E 134°57'611.9
2017-Dec-17 13:30N 34°32' E 135°02'510.1
2017-Dec-17 13:01N 34°37' E 135°01'611.4
2017-Dec-17 12:31N 34°37' E 134°54'611.5
2017-Dec-17 12:01N 34°40' E 134°48'3 0.1
2017-Dec-16 11:38N 34°43' E 134°48'1 4.3
2017-Dec-16 11:30N 34°43' E 134°48'1 0.3
2017-Dec-16 09:06N 34°42' E 134°48'0 1.3
2017-Dec-16 09:00N 34°42' E 134°48'510.7
2017-Dec-16 08:30N 34°39' E 134°52'611.8
2017-Dec-16 08:00N 34°38' E 134°59'510.4
2017-Dec-16 07:30N 34°35' E 135°05'510.6
2017-Dec-16 07:00N 34°30' E 135°04'612.0
2017-Dec-16 06:30N 34°24' E 135°02'611.8
2017-Dec-16 06:00N 34°19' E 134°60'510.6
2017-Dec-16 05:30N 34°13' E 134°60'510.8
2017-Dec-16 05:00N 34°08' E 134°60'510.9
2017-Dec-16 04:30N 34°03' E 135°00'160 8.9
2017-Dec-15 10:35N 34°33' E 138°10'110.5
2017-Dec-15 10:29N 34°33' E 138°12'610.9
2017-Dec-15 09:57N 34°35' E 138°18'612.2
2017-Dec-15 09:29N 34°40' E 138°22'712.5
2017-Dec-15 08:58N 34°46' E 138°25'612.4
2017-Dec-15 08:30N 34°51' E 138°29'612.2
2017-Dec-15 08:00N 34°56' E 138°33'612.0
2017-Dec-15 07:30N 35°01' E 138°37'8 0.4
2017-Dec-14 10:57N 35°09' E 138°41'1 1.9
2017-Dec-14 10:30N 35°08' E 138°42'510.1
2017-Dec-14 10:00N 35°03' E 138°40'611.7
2017-Dec-14 09:31N 34°58' E 138°36'611.6
2017-Dec-14 09:00N 34°53' E 138°32'611.6
2017-Dec-14 08:31N 34°48' E 138°28'611.6
2017-Dec-14 08:00N 34°44' E 138°25'611.5
2017-Dec-14 07:30N 34°39' E 138°21'611.4
2017-Dec-14 06:58N 34°34' E 138°16'16610.0
2017-Dec-13 14:22N 33°53' E 135°01'412.2
2017-Dec-13 14:01N 33°57' E 135°00'612.3
2017-Dec-13 13:31N 34°04' E 134°59'612.6
2017-Dec-13 13:00N 34°10' E 134°59'713.4
2017-Dec-13 12:30N 34°17' E 134°59'613.0
2017-Dec-13 12:00N 34°23' E 134°60'612.3
2017-Dec-13 11:30N 34°29' E 135°01'612.0
2017-Dec-13 11:01N 34°35' E 135°03'5 9.8
2017-Dec-13 10:30N 34°36' E 134°57'611.3
2017-Dec-13 10:00N 34°39' E 134°51'5 0.3
2017-Dec-12 19:39N 34°43' E 134°48'1 6.7
2017-Dec-12 19:31N 34°42' E 134°48'1 1.1
2017-Dec-12 19:00N 34°42' E 134°48'4 7.0
2017-Dec-12 18:31N 34°39' E 134°51'510.9
2017-Dec-12 18:00N 34°38' E 134°57'611.6
2017-Dec-12 17:31N 34°36' E 135°04'5 9.9
2017-Dec-12 17:01N 34°31' E 135°05'612.0
2017-Dec-12 16:30N 34°25' E 135°03'611.7
2017-Dec-12 16:00N 34°20' E 135°01'510.9
2017-Dec-12 15:31N 34°14' E 134°59'510.5
2017-Dec-12 15:00N 34°09' E 135°00'510.8
2017-Dec-12 14:30N 34°04' E 135°01'103 7.4
2017-Dec-12 00:30N 34°33' E 137°01'14 8.3
2017-Dec-11 22:49N 34°44' E 137°12'3 0.2
2017-Dec-11 10:53N 34°45' E 137°16'3 4.4
2017-Dec-11 10:14N 34°43' E 137°18'2 0.4
2017-Dec-11 04:59N 34°44' E 137°17'2 0.1
2017-Dec-10 10:18N 34°44' E 137°14'2 6.8
2017-Dec-10 09:59N 34°44' E 137°12'612.0
2017-Dec-10 09:30N 34°41' E 137°06'611.8
2017-Dec-10 08:59N 34°37' E 136°60'5310.7
2017-Dec-10 04:01N 34°33' E 138°04'410.7
2017-Dec-10 03:42N 34°33' E 138°08'310.5
2017-Dec-10 03:26N 34°33' E 138°12'610.9
2017-Dec-10 02:52N 34°35' E 138°19'511.8
2017-Dec-10 02:27N 34°39' E 138°23'712.3
2017-Dec-10 01:53N 34°45' E 138°27'512.3
2017-Dec-10 01:30N 34°49' E 138°30'612.0
2017-Dec-10 00:59N 34°55' E 138°34'612.2
2017-Dec-10 00:30N 34°60' E 138°37'612.2
2017-Dec-10 00:01N 35°05' E 138°40'4 7.3
2017-Dec-09 23:30N 35°09' E 138°41'0 0.0
2017-Dec-08 06:49N 35°09' E 138°41'0 0.7
2017-Dec-08 06:30N 35°08' E 138°42'4 6.9
2017-Dec-08 06:00N 35°06' E 138°39'511.2
2017-Dec-08 05:30N 35°03' E 138°33'3 0.5
2017-Dec-08 00:12N 35°01' E 138°30'0 1.3
2017-Dec-08 00:01N 35°01' E 138°30'0 0.0
2017-Dec-07 17:06N 35°01' E 138°30'0 0.6
2017-Dec-07 17:00N 35°01' E 138°30'1 1.5
2017-Dec-07 16:31N 35°01' E 138°31'1 2.5
2017-Dec-07 16:01N 35°02' E 138°32'2 4.8
2017-Dec-07 15:30N 34°60' E 138°33'510.3
2017-Dec-07 15:00N 34°55' E 138°31'  
Track history (hours):
 
Tides and Currents Weather Stations Pressure Air Temp Water Temp Dewpoint Dewpoint Depression Visibility Wind Speed Wind Dir Waves Ship Positions

Youkamaru

Last reported at 2017-Dec-17 14:37 UTC. Time now 2017-Dec-17 17:24 UTC.
Position N 34°26' E 134°55'.

Length 72 m; draft 4.8 m.

Type: Cargo ship. MMSI: 431005921.

Date/timePositionNaut miles runAvg speedWind from/ knotsBaromVisibWave heightAir tempDewpointWater temp
2017-Dec-17 14:37N 34°26' E 134°55'0 0.0
2017-Dec-17 14:31N 34°26' E 134°55'2 4.6
2017-Dec-17 14:01N 34°27' E 134°57'611.9
2017-Dec-17 13:30N 34°32' E 135°02'510.1
2017-Dec-17 13:01N 34°37' E 135°01'611.4
2017-Dec-17 12:31N 34°37' E 134°54'611.5
2017-Dec-17 12:01N 34°40' E 134°48'3 0.1
2017-Dec-16 11:38N 34°43' E 134°48'1 4.3
2017-Dec-16 11:30N 34°43' E 134°48'1 0.3
2017-Dec-16 09:06N 34°42' E 134°48'0 1.3
2017-Dec-16 09:00N 34°42' E 134°48'510.7
2017-Dec-16 08:30N 34°39' E 134°52'611.8
2017-Dec-16 08:00N 34°38' E 134°59'510.4
2017-Dec-16 07:30N 34°35' E 135°05'510.6
2017-Dec-16 07:00N 34°30' E 135°04'612.0
2017-Dec-16 06:30N 34°24' E 135°02'611.8
2017-Dec-16 06:00N 34°19' E 134°60'510.6
2017-Dec-16 05:30N 34°13' E 134°60'510.8
2017-Dec-16 05:00N 34°08' E 134°60'510.9
2017-Dec-16 04:30N 34°03' E 135°00'160 8.9
2017-Dec-15 10:35N 34°33' E 138°10'110.5
2017-Dec-15 10:29N 34°33' E 138°12'610.9
2017-Dec-15 09:57N 34°35' E 138°18'612.2
2017-Dec-15 09:29N 34°40' E 138°22'712.5
2017-Dec-15 08:58N 34°46' E 138°25'612.4
2017-Dec-15 08:30N 34°51' E 138°29'612.2
2017-Dec-15 08:00N 34°56' E 138°33'612.0
2017-Dec-15 07:30N 35°01' E 138°37'8 0.4
2017-Dec-14 10:57N 35°09' E 138°41'1 1.9
2017-Dec-14 10:30N 35°08' E 138°42'510.1
2017-Dec-14 10:00N 35°03' E 138°40'611.7
2017-Dec-14 09:31N 34°58' E 138°36'611.6
2017-Dec-14 09:00N 34°53' E 138°32'611.6
2017-Dec-14 08:31N 34°48' E 138°28'611.6
2017-Dec-14 08:00N 34°44' E 138°25'611.5
2017-Dec-14 07:30N 34°39' E 138°21'611.4
2017-Dec-14 06:58N 34°34' E 138°16'16610.0
2017-Dec-13 14:22N 33°53' E 135°01'412.2
2017-Dec-13 14:01N 33°57' E 135°00'612.3
2017-Dec-13 13:31N 34°04' E 134°59'612.6
2017-Dec-13 13:00N 34°10' E 134°59'713.4
2017-Dec-13 12:30N 34°17' E 134°59'613.0
2017-Dec-13 12:00N 34°23' E 134°60'612.3
2017-Dec-13 11:30N 34°29' E 135°01'612.0
2017-Dec-13 11:01N 34°35' E 135°03'5 9.8
2017-Dec-13 10:30N 34°36' E 134°57'611.3
2017-Dec-13 10:00N 34°39' E 134°51'5 0.3
2017-Dec-12 19:39N 34°43' E 134°48'1 6.7
2017-Dec-12 19:31N 34°42' E 134°48'1 1.1
2017-Dec-12 19:00N 34°42' E 134°48'4 7.0
2017-Dec-12 18:31N 34°39' E 134°51'510.9
2017-Dec-12 18:00N 34°38' E 134°57'611.6
2017-Dec-12 17:31N 34°36' E 135°04'5 9.9
2017-Dec-12 17:01N 34°31' E 135°05'612.0
2017-Dec-12 16:30N 34°25' E 135°03'611.7
2017-Dec-12 16:00N 34°20' E 135°01'510.9
2017-Dec-12 15:31N 34°14' E 134°59'510.5
2017-Dec-12 15:00N 34°09' E 135°00'510.8
2017-Dec-12 14:30N 34°04' E 135°01'103 7.4
2017-Dec-12 00:30N 34°33' E 137°01'14 8.3
2017-Dec-11 22:49N 34°44' E 137°12'3 0.2
2017-Dec-11 10:53N 34°45' E 137°16'3 4.4
2017-Dec-11 10:14N 34°43' E 137°18'2 0.4
2017-Dec-11 04:59N 34°44' E 137°17'2 0.1
2017-Dec-10 10:18N 34°44' E 137°14'2 6.8
2017-Dec-10 09:59N 34°44' E 137°12'612.0
2017-Dec-10 09:30N 34°41' E 137°06'611.8
2017-Dec-10 08:59N 34°37' E 136°60'5310.7
2017-Dec-10 04:01N 34°33' E 138°04'410.7
2017-Dec-10 03:42N 34°33' E 138°08'310.5
2017-Dec-10 03:26N 34°33' E 138°12'610.9
2017-Dec-10 02:52N 34°35' E 138°19'511.8
2017-Dec-10 02:27N 34°39' E 138°23'712.3
2017-Dec-10 01:53N 34°45' E 138°27'512.3
2017-Dec-10 01:30N 34°49' E 138°30'612.0
2017-Dec-10 00:59N 34°55' E 138°34'612.2
2017-Dec-10 00:30N 34°60' E 138°37'612.2
2017-Dec-10 00:01N 35°05' E 138°40'4 7.3
2017-Dec-09 23:30N 35°09' E 138°41'0 0.0
2017-Dec-08 06:49N 35°09' E 138°41'0 0.7
2017-Dec-08 06:30N 35°08' E 138°42'4 6.9
2017-Dec-08 06:00N 35°06' E 138°39'511.2
2017-Dec-08 05:30N 35°03' E 138°33'3 0.5
2017-Dec-08 00:12N 35°01' E 138°30'0 1.3
2017-Dec-08 00:01N 35°01' E 138°30'0 0.0
2017-Dec-07 17:06N 35°01' E 138°30'0 0.6
2017-Dec-07 17:00N 35°01' E 138°30'1 1.5
2017-Dec-07 16:31N 35°01' E 138°31'1 2.5
2017-Dec-07 16:01N 35°02' E 138°32'2 4.8
2017-Dec-07 15:30N 34°60' E 138°33'510.3
2017-Dec-07 15:00N 34°55' E 138°31'  

Dump ship's entire track history